createdAt,value
2022-10-03T00:00:41.035Z,15.30
2022-10-03T00:02:03.472Z,15.30
2022-10-03T00:03:33.842Z,15.30
2022-10-03T00:05:17.916Z,15.30
2022-10-03T00:06:51.242Z,15.30
2022-10-03T00:08:09.397Z,15.30
2022-10-03T00:09:39.379Z,15.30
2022-10-03T00:11:21.133Z,15.20
2022-10-03T00:12:59.836Z,15.20
2022-10-03T00:14:15.827Z,15.20
2022-10-03T00:15:23.072Z,15.20
2022-10-03T00:16:36.680Z,15.20
2022-10-03T00:17:53.655Z,15.20
2022-10-03T00:19:07.343Z,15.20
2022-10-03T00:20:11.848Z,15.20
2022-10-03T00:21:27.348Z,15.20
2022-10-03T00:22:28.929Z,15.20
2022-10-03T00:23:45.468Z,15.20
2022-10-03T00:25:13.100Z,15.20
2022-10-03T00:26:50.556Z,15.20
2022-10-03T00:28:22.505Z,15.20
2022-10-03T00:29:39.352Z,15.20
2022-10-03T00:30:46.895Z,15.20
2022-10-03T00:32:30.291Z,15.20
2022-10-03T00:33:47.024Z,15.20
2022-10-03T00:35:09.852Z,15.20
2022-10-03T00:36:21.243Z,15.20
2022-10-03T00:37:38.089Z,15.20
2022-10-03T00:38:39.675Z,15.20
2022-10-03T00:39:52.072Z,15.20
2022-10-03T00:41:12.423Z,15.20
2022-10-03T00:42:20.014Z,15.20
2022-10-03T00:43:43.607Z,15.20
2022-10-03T00:44:56.882Z,15.30
2022-10-03T00:46:11.125Z,15.30
2022-10-03T00:47:15.794Z,15.30
2022-10-03T00:48:46.804Z,15.30
2022-10-03T00:50:09.765Z,15.30
2022-10-03T00:51:29.785Z,15.30
2022-10-03T00:52:40.811Z,15.30
2022-10-03T00:53:48.240Z,15.30
2022-10-03T00:55:09.559Z,15.30
2022-10-03T00:56:31.491Z,15.30
2022-10-03T00:58:01.417Z,15.30
2022-10-03T00:59:24.631Z,15.30
2022-10-03T01:00:29.354Z,15.30
2022-10-03T01:01:42.551Z,15.30
2022-10-03T01:02:53.109Z,15.30
2022-10-03T01:04:05.521Z,15.30
2022-10-03T01:05:14.464Z,15.30
2022-10-03T01:06:32.085Z,15.30
2022-10-03T01:07:46.880Z,15.30
2022-10-03T01:09:12.424Z,15.30
2022-10-03T01:10:36.217Z,15.30
2022-10-03T01:11:50.023Z,15.30
2022-10-03T01:13:18.038Z,15.20
2022-10-03T01:14:39.119Z,15.20
2022-10-03T01:15:59.530Z,15.20
2022-10-03T01:17:18.491Z,15.20
2022-10-03T01:18:42.203Z,15.20
2022-10-03T01:19:59.010Z,15.20
2022-10-03T01:21:15.026Z,15.20
2022-10-03T01:22:51.582Z,15.20
2022-10-03T01:24:14.816Z,15.20
2022-10-03T01:25:29.085Z,15.20
2022-10-03T01:26:52.184Z,15.30
2022-10-03T01:28:47.987Z,15.20
2022-10-03T01:30:19.082Z,15.20
2022-10-03T01:31:44.679Z,15.20
2022-10-03T01:33:31.850Z,15.20
2022-10-03T01:35:00.324Z,15.20
2022-10-03T01:36:20.505Z,15.10
2022-10-03T01:37:37.016Z,15.10
2022-10-03T01:39:11.328Z,15.10
2022-10-03T01:40:34.231Z,15.10
2022-10-03T01:41:48.470Z,15.20
2022-10-03T01:43:11.900Z,15.10
2022-10-03T01:44:29.301Z,15.10
2022-10-03T01:45:48.814Z,15.10
2022-10-03T01:47:13.845Z,15.10
2022-10-03T01:48:23.748Z,15.10
2022-10-03T01:49:39.107Z,15.10
2022-10-03T01:50:58.599Z,15.10
2022-10-03T01:52:24.834Z,15.10
2022-10-03T01:53:35.546Z,15.10
2022-10-03T01:54:39.891Z,15.10
2022-10-03T01:56:03.865Z,15.10
2022-10-03T01:57:25.826Z,15.10
2022-10-03T01:58:57.006Z,15.10
2022-10-03T02:00:11.153Z,15.10
2022-10-03T02:01:21.752Z,15.10
2022-10-03T02:02:33.602Z,15.10
2022-10-03T02:03:49.184Z,15.10
2022-10-03T02:04:56.360Z,15.10
2022-10-03T02:06:06.779Z,15.10
2022-10-03T02:07:29.887Z,15.10
2022-10-03T02:08:51.786Z,15.10
2022-10-03T02:10:31.887Z,15.10
2022-10-03T02:11:44.639Z,15.10
2022-10-03T02:12:50.859Z,15.10
2022-10-03T02:14:06.871Z,15.10
2022-10-03T02:15:14.722Z,15.10
2022-10-03T02:16:16.570Z,15.10
2022-10-03T02:17:42.254Z,15.10
2022-10-03T02:19:06.839Z,15.10
2022-10-03T02:20:43.256Z,15.10
2022-10-03T02:21:54.729Z,15.10
2022-10-03T02:22:58.991Z,15.10
2022-10-03T02:24:16.009Z,15.10
2022-10-03T02:25:24.365Z,15.10
2022-10-03T02:26:47.365Z,15.10
2022-10-03T02:28:12.975Z,15.20
2022-10-03T02:29:52.327Z,15.10
2022-10-03T02:31:14.885Z,15.10
2022-10-03T02:32:54.458Z,15.10
2022-10-03T02:34:15.921Z,15.10
2022-10-03T02:35:55.088Z,15.10
2022-10-03T02:37:27.725Z,15.10
2022-10-03T02:38:51.449Z,15.10
2022-10-03T02:40:17.505Z,15.10
2022-10-03T02:41:39.041Z,15.10
2022-10-03T02:43:23.169Z,15.10
2022-10-03T02:45:10.319Z,15.10
2022-10-03T02:46:17.742Z,15.00
2022-10-03T02:47:40.546Z,15.00
2022-10-03T02:49:13.012Z,15.00
2022-10-03T02:50:33.911Z,15.00
2022-10-03T02:52:06.746Z,15.00
2022-10-03T02:53:28.376Z,15.00
2022-10-03T02:54:52.020Z,15.00
2022-10-03T02:56:28.520Z,15.00
2022-10-03T02:57:48.799Z,15.00
2022-10-03T02:59:26.101Z,15.00
2022-10-03T03:01:03.612Z,15.00
2022-10-03T03:02:36.634Z,15.10
2022-10-03T03:04:08.861Z,15.10
2022-10-03T03:05:19.585Z,15.00
2022-10-03T03:06:42.805Z,15.00
2022-10-03T03:08:08.716Z,15.00
2022-10-03T03:09:48.975Z,15.10
2022-10-03T03:11:18.613Z,15.00
2022-10-03T03:12:29.762Z,15.00
2022-10-03T03:13:59.747Z,15.00
2022-10-03T03:15:48.482Z,14.90
2022-10-03T03:17:23.498Z,15.00
2022-10-03T03:18:37.237Z,14.90
2022-10-03T03:20:10.392Z,15.00
2022-10-03T03:21:26.718Z,15.00
2022-10-03T03:22:49.194Z,15.00
2022-10-03T03:23:59.652Z,15.00
2022-10-03T03:25:19.930Z,15.00
2022-10-03T03:27:01.207Z,15.00
2022-10-03T03:28:26.736Z,15.00
2022-10-03T03:29:37.333Z,15.10
2022-10-03T03:31:05.590Z,15.00
2022-10-03T03:32:34.629Z,15.10
2022-10-03T03:34:07.617Z,15.10
2022-10-03T03:35:46.667Z,15.10
2022-10-03T03:37:01.542Z,15.00
2022-10-03T03:38:36.860Z,15.00
2022-10-03T03:39:51.791Z,15.00
2022-10-03T03:41:08.291Z,15.00
2022-10-03T03:42:16.274Z,15.10
2022-10-03T03:43:45.770Z,15.10
2022-10-03T03:45:08.379Z,15.10
2022-10-03T03:46:35.306Z,15.10
2022-10-03T03:48:06.712Z,15.10
2022-10-03T03:49:31.449Z,15.10
2022-10-03T03:50:56.207Z,15.10
2022-10-03T03:52:31.554Z,15.10
2022-10-03T03:54:06.028Z,15.10
2022-10-03T03:55:24.270Z,15.10
2022-10-03T03:56:28.986Z,15.10
2022-10-03T03:57:34.012Z,15.10
2022-10-03T03:58:51.454Z,15.10
2022-10-03T04:00:13.980Z,15.10
2022-10-03T04:01:43.726Z,15.20
2022-10-03T04:03:07.776Z,15.20
2022-10-03T04:04:21.841Z,15.20
2022-10-03T04:05:45.097Z,15.20
2022-10-03T04:07:24.311Z,15.20
2022-10-03T04:09:00.912Z,15.20
2022-10-03T04:10:17.898Z,15.20
2022-10-03T04:11:33.018Z,15.20
2022-10-03T04:12:40.827Z,15.20
2022-10-03T04:14:06.310Z,15.10
2022-10-03T04:15:23.062Z,15.10
2022-10-03T04:17:23.613Z,15.10
2022-10-03T04:18:59.489Z,15.10
2022-10-03T04:20:35.912Z,15.10
2022-10-03T04:21:51.167Z,15.10
2022-10-03T04:23:08.628Z,15.10
2022-10-03T04:24:36.309Z,15.10
2022-10-03T04:25:54.886Z,15.10
2022-10-03T04:26:59.665Z,15.10
2022-10-03T04:28:38.745Z,15.10
2022-10-03T04:29:56.913Z,15.10
2022-10-03T04:30:59.758Z,15.10
2022-10-03T04:32:11.131Z,15.10
2022-10-03T04:33:31.685Z,15.10
2022-10-03T04:35:04.567Z,15.10
2022-10-03T04:36:15.188Z,15.10
2022-10-03T04:37:35.858Z,15.10
2022-10-03T04:38:44.348Z,15.10
2022-10-03T04:40:18.240Z,15.10
2022-10-03T04:41:30.078Z,15.10
2022-10-03T04:42:58.434Z,15.10
2022-10-03T04:44:26.703Z,15.10
2022-10-03T04:45:46.158Z,15.00
2022-10-03T04:47:06.634Z,15.00
2022-10-03T04:48:35.932Z,15.00
2022-10-03T04:49:53.027Z,15.00
2022-10-03T04:51:19.696Z,15.00
2022-10-03T04:52:59.230Z,15.10
2022-10-03T04:54:28.453Z,15.00
2022-10-03T04:55:42.063Z,15.00
2022-10-03T04:56:48.395Z,15.00
2022-10-03T04:58:05.511Z,15.00
2022-10-03T04:59:22.383Z,14.90
2022-10-03T05:00:28.289Z,14.90
2022-10-03T05:01:32.796Z,14.90
2022-10-03T05:02:58.018Z,14.90
2022-10-03T05:04:26.638Z,14.90
2022-10-03T05:05:35.001Z,14.90
2022-10-03T05:07:16.491Z,14.90
2022-10-03T05:08:18.114Z,14.90
2022-10-03T05:09:49.653Z,14.80
2022-10-03T05:11:07.348Z,14.80
2022-10-03T05:12:48.337Z,14.90
2022-10-03T05:14:03.819Z,14.80
2022-10-03T05:15:15.459Z,14.90
2022-10-03T05:16:20.337Z,14.90
2022-10-03T05:17:37.289Z,14.90
2022-10-03T05:18:45.571Z,14.90
2022-10-03T05:20:05.112Z,14.90
2022-10-03T05:21:20.202Z,14.90
2022-10-03T05:22:40.506Z,14.90
2022-10-03T05:24:03.045Z,14.90
2022-10-03T05:25:13.730Z,14.90
2022-10-03T05:26:44.660Z,14.90
2022-10-03T05:28:12.375Z,14.90
2022-10-03T05:29:42.337Z,14.90
2022-10-03T05:31:16.548Z,14.90
2022-10-03T05:32:18.177Z,14.90
2022-10-03T05:33:33.967Z,14.90
2022-10-03T05:34:59.661Z,14.90
2022-10-03T05:36:18.691Z,14.80
2022-10-03T05:37:48.241Z,14.80
2022-10-03T05:39:18.979Z,14.80
2022-10-03T05:40:24.035Z,14.80
2022-10-03T05:41:35.623Z,14.80
2022-10-03T05:42:49.352Z,14.80
2022-10-03T05:44:02.666Z,14.80
2022-10-03T05:45:23.468Z,14.90
2022-10-03T05:46:43.947Z,14.90
2022-10-03T05:48:09.057Z,14.90
2022-10-03T05:49:16.712Z,14.90
2022-10-03T05:50:30.670Z,14.80
2022-10-03T05:51:42.662Z,14.80
2022-10-03T05:53:06.917Z,14.80
2022-10-03T05:55:01.754Z,14.80
2022-10-03T05:56:09.208Z,14.80
2022-10-03T05:58:00.226Z,14.80
2022-10-03T05:59:36.233Z,14.80
2022-10-03T06:01:08.352Z,14.70
2022-10-03T06:02:37.502Z,14.70
2022-10-03T06:03:48.455Z,14.70
2022-10-03T06:05:11.359Z,14.70
2022-10-03T06:06:21.128Z,14.60
2022-10-03T06:07:56.849Z,14.60
2022-10-03T06:09:07.358Z,14.60
2022-10-03T06:10:39.519Z,14.60
2022-10-03T06:12:05.931Z,14.50
2022-10-03T06:13:41.046Z,14.50
2022-10-03T06:14:54.899Z,14.50
2022-10-03T06:15:59.248Z,14.50
2022-10-03T06:17:27.034Z,14.50
2022-10-03T06:18:53.956Z,14.50
2022-10-03T06:20:25.799Z,14.50
2022-10-03T06:21:42.952Z,14.50
2022-10-03T06:23:19.674Z,14.50
2022-10-03T06:24:56.394Z,14.50
2022-10-03T06:26:19.251Z,14.60
2022-10-03T06:27:40.773Z,14.60
2022-10-03T06:29:27.139Z,14.60
2022-10-03T06:30:38.028Z,14.70
2022-10-03T06:32:00.420Z,14.60
2022-10-03T06:33:27.023Z,14.70
2022-10-03T06:34:31.514Z,14.70
2022-10-03T06:36:11.571Z,14.70
2022-10-03T06:37:39.050Z,14.70
2022-10-03T06:39:08.458Z,14.70
2022-10-03T06:40:43.922Z,14.60
2022-10-03T06:42:23.079Z,14.60
2022-10-03T06:43:43.789Z,14.60
2022-10-03T06:45:15.569Z,14.60
2022-10-03T06:46:47.839Z,14.50
2022-10-03T06:48:01.327Z,14.60
2022-10-03T06:49:21.811Z,14.60
2022-10-03T06:50:23.484Z,14.60
2022-10-03T06:52:03.424Z,14.70
2022-10-03T06:53:24.025Z,14.70
2022-10-03T06:54:34.690Z,14.70
2022-10-03T06:56:01.218Z,14.80
2022-10-03T06:57:13.573Z,14.70
2022-10-03T06:58:38.596Z,14.70
2022-10-03T06:59:59.912Z,14.70
2022-10-03T07:01:33.852Z,14.70
2022-10-03T07:06:14.858Z,14.70
2022-10-03T07:07:41.075Z,14.70
2022-10-03T07:09:01.792Z,14.70
2022-10-03T07:10:29.965Z,14.80
2022-10-03T07:12:05.414Z,14.80
2022-10-03T07:13:22.494Z,14.80
2022-10-03T07:14:51.562Z,14.90
2022-10-03T07:16:28.198Z,14.90
2022-10-03T07:17:39.246Z,14.90
2022-10-03T07:19:02.440Z,14.90
2022-10-03T07:20:06.846Z,14.90
2022-10-03T07:21:26.824Z,14.90
2022-10-03T07:23:21.581Z,14.90
2022-10-03T07:24:45.126Z,14.90
2022-10-03T07:26:08.434Z,15.00
2022-10-03T07:27:34.002Z,15.00
2022-10-03T07:29:00.127Z,15.00
2022-10-03T07:30:09.637Z,15.00
2022-10-03T07:31:27.392Z,15.00
2022-10-03T07:32:32.576Z,15.00
2022-10-03T07:33:52.985Z,15.10
2022-10-03T07:35:15.485Z,15.10
2022-10-03T07:37:05.591Z,15.10
2022-10-03T07:38:58.036Z,15.10
2022-10-03T07:40:12.808Z,15.10
2022-10-03T07:41:51.784Z,15.10
2022-10-03T07:43:19.767Z,15.10
2022-10-03T07:44:42.770Z,15.10
2022-10-03T07:46:23.054Z,15.20
2022-10-03T07:48:00.079Z,15.20
2022-10-03T07:49:18.757Z,15.20
2022-10-03T07:50:32.466Z,15.30
2022-10-03T07:52:12.548Z,15.30
2022-10-03T07:53:55.426Z,15.30
2022-10-03T07:55:42.646Z,15.30
2022-10-03T07:57:12.466Z,15.30
2022-10-03T07:58:26.295Z,15.30
2022-10-03T08:00:02.483Z,15.30
2022-10-03T08:01:07.337Z,15.40
2022-10-03T08:02:21.174Z,15.40
2022-10-03T08:03:41.810Z,15.40
2022-10-03T08:05:22.659Z,15.40
2022-10-03T08:06:37.987Z,15.40
2022-10-03T08:08:14.019Z,15.50
2022-10-03T08:09:56.274Z,15.50
2022-10-03T08:11:09.871Z,15.50
2022-10-03T08:12:29.357Z,15.50
2022-10-03T08:13:52.624Z,15.50
2022-10-03T08:14:58.395Z,15.50
2022-10-03T08:16:27.623Z,15.50
2022-10-03T08:18:20.867Z,15.60
2022-10-03T08:19:43.735Z,15.60
2022-10-03T08:20:55.400Z,15.50
2022-10-03T08:22:15.077Z,15.50
2022-10-03T08:23:52.358Z,15.50
2022-10-03T08:25:22.139Z,15.50
2022-10-03T08:26:44.515Z,15.50
2022-10-03T08:27:48.848Z,15.50
2022-10-03T08:29:00.575Z,15.50
2022-10-03T08:30:23.782Z,15.50
2022-10-03T08:31:30.814Z,15.50
2022-10-03T08:32:58.911Z,15.50
2022-10-03T08:34:18.922Z,15.50
2022-10-03T08:35:32.065Z,15.50
2022-10-03T08:36:42.601Z,15.50
2022-10-03T08:38:17.694Z,15.50
2022-10-03T08:39:45.830Z,15.50
2022-10-03T08:41:24.367Z,15.50
2022-10-03T08:42:46.779Z,15.50
2022-10-03T08:44:38.743Z,15.50
2022-10-03T08:45:45.384Z,15.50
2022-10-03T08:47:29.864Z,15.50
2022-10-03T08:49:00.732Z,15.60
2022-10-03T08:50:33.232Z,15.60
2022-10-03T08:51:55.983Z,15.60
2022-10-03T08:53:28.683Z,15.50
2022-10-03T08:54:52.361Z,15.50
2022-10-03T08:56:17.431Z,15.60
2022-10-03T08:57:30.616Z,15.60
2022-10-03T08:58:53.856Z,15.60
2022-10-03T09:00:19.862Z,15.60
2022-10-03T09:01:40.062Z,15.60
2022-10-03T09:03:43.028Z,15.60
2022-10-03T09:04:57.189Z,15.70
2022-10-03T09:06:27.001Z,15.70
2022-10-03T09:07:44.547Z,15.70
2022-10-03T09:09:17.122Z,15.70
2022-10-03T09:10:51.972Z,15.70
2022-10-03T09:12:09.030Z,15.70
2022-10-03T09:13:37.001Z,15.80
2022-10-03T09:15:03.713Z,15.80
2022-10-03T09:16:26.686Z,15.80
2022-10-03T09:17:46.912Z,15.90
2022-10-03T09:19:28.019Z,15.90
2022-10-03T09:20:41.726Z,15.90
2022-10-03T09:22:19.587Z,16.00
2022-10-03T09:23:55.457Z,16.00
2022-10-03T09:25:19.823Z,16.10
2022-10-03T09:26:57.780Z,16.10
2022-10-03T09:28:26.280Z,16.10
2022-10-03T09:29:40.103Z,16.10
2022-10-03T09:31:03.989Z,16.20
2022-10-03T09:32:47.388Z,16.20
2022-10-03T09:34:00.757Z,16.10
2022-10-03T09:35:32.728Z,16.10
2022-10-03T09:37:01.428Z,16.10
2022-10-03T09:38:27.171Z,16.10
2022-10-03T09:40:02.525Z,16.10
2022-10-03T09:41:31.289Z,16.10
2022-10-03T09:43:03.729Z,16.00
2022-10-03T09:44:45.554Z,15.90
2022-10-03T09:46:21.526Z,15.80
2022-10-03T09:47:49.014Z,15.80
2022-10-03T09:49:27.344Z,15.90
2022-10-03T09:51:06.381Z,15.90
2022-10-03T09:52:48.193Z,15.90
2022-10-03T09:54:30.709Z,15.90
2022-10-03T09:56:05.039Z,15.90
2022-10-03T09:57:44.527Z,16.00
2022-10-03T09:59:17.382Z,16.00
2022-10-03T10:00:25.647Z,16.00
2022-10-03T10:01:41.634Z,16.00
2022-10-03T10:03:05.609Z,16.10
2022-10-03T10:04:50.256Z,16.20
2022-10-03T10:06:10.189Z,16.30
2022-10-03T10:07:30.727Z,16.30
2022-10-03T10:09:18.557Z,16.30
2022-10-03T10:10:29.380Z,16.40
2022-10-03T10:12:03.876Z,16.30
2022-10-03T10:14:03.224Z,16.30
2022-10-03T10:15:23.109Z,16.30
2022-10-03T10:16:33.702Z,16.40
2022-10-03T10:17:56.514Z,16.40
2022-10-03T10:19:34.298Z,16.50
2022-10-03T10:21:12.702Z,16.50
2022-10-03T10:23:01.101Z,16.60
2022-10-03T10:24:34.032Z,16.60
2022-10-03T10:25:47.577Z,16.60
2022-10-03T10:27:14.014Z,16.60
2022-10-03T10:28:48.412Z,16.70
2022-10-03T10:29:50.493Z,16.70
2022-10-03T10:31:14.212Z,16.80
2022-10-03T10:32:43.797Z,16.80
2022-10-03T10:34:04.359Z,16.80
2022-10-03T10:35:44.576Z,16.90
2022-10-03T10:37:21.225Z,16.80
2022-10-03T10:38:43.894Z,16.80
2022-10-03T10:40:00.769Z,16.80
2022-10-03T10:41:29.836Z,16.80
2022-10-03T10:42:34.665Z,16.70
2022-10-03T10:43:48.325Z,16.70
2022-10-03T10:45:24.616Z,16.70
2022-10-03T10:46:41.404Z,16.70
2022-10-03T10:48:14.850Z,16.80
2022-10-03T10:50:00.893Z,16.80
2022-10-03T10:51:07.066Z,16.80
2022-10-03T10:52:14.873Z,16.90
2022-10-03T10:53:56.208Z,16.80
2022-10-03T10:55:03.757Z,16.90
2022-10-03T10:56:36.792Z,17.00
2022-10-03T10:57:57.178Z,16.90
2022-10-03T10:59:26.982Z,17.00
2022-10-03T11:01:06.103Z,17.00
2022-10-03T11:02:35.814Z,17.00
2022-10-03T11:04:00.555Z,17.10
2022-10-03T11:05:30.762Z,17.10
2022-10-03T11:06:52.480Z,17.10
2022-10-03T11:08:32.083Z,17.20
2022-10-03T11:09:55.099Z,17.20
2022-10-03T11:11:35.211Z,17.20
2022-10-03T11:12:56.448Z,17.20
2022-10-03T11:13:58.211Z,17.10
2022-10-03T11:15:37.862Z,17.10
2022-10-03T11:17:01.314Z,17.10
2022-10-03T11:18:08.939Z,17.10
2022-10-03T11:19:45.853Z,17.10
2022-10-03T11:21:12.367Z,17.20
2022-10-03T11:22:49.283Z,17.20
2022-10-03T11:24:36.775Z,17.20
2022-10-03T11:25:40.456Z,17.20
2022-10-03T11:27:19.678Z,17.20
2022-10-03T11:28:29.121Z,17.20
2022-10-03T11:30:03.058Z,17.30
2022-10-03T11:31:04.720Z,17.30
2022-10-03T11:32:09.763Z,17.30
2022-10-03T11:33:32.977Z,17.40
2022-10-03T11:34:40.150Z,17.40
2022-10-03T11:36:12.314Z,17.50
2022-10-03T11:37:32.664Z,17.50
2022-10-03T11:39:09.252Z,17.50
2022-10-03T11:40:34.666Z,17.50
2022-10-03T11:41:53.730Z,17.50
2022-10-03T11:43:22.929Z,17.50
2022-10-03T11:44:34.098Z,17.50
2022-10-03T11:46:11.075Z,17.50
2022-10-03T11:47:37.839Z,17.50
2022-10-03T11:48:44.551Z,17.50
2022-10-03T11:50:16.304Z,17.40
2022-10-03T11:51:36.071Z,17.40
2022-10-03T11:52:47.101Z,17.40
2022-10-03T11:54:29.454Z,17.30
2022-10-03T11:55:51.390Z,17.30
2022-10-03T11:57:18.100Z,17.30
2022-10-03T11:58:41.408Z,17.20
2022-10-03T12:00:20.148Z,17.10
2022-10-03T12:01:39.891Z,17.10
2022-10-03T12:03:17.214Z,17.10
2022-10-03T12:04:46.863Z,17.10
2022-10-03T12:06:20.090Z,17.20
2022-10-03T12:08:03.875Z,17.20
2022-10-03T12:09:17.876Z,17.20
2022-10-03T12:10:57.823Z,17.20
2022-10-03T12:12:36.624Z,17.30
2022-10-03T12:13:46.513Z,17.30
2022-10-03T12:14:51.761Z,17.40
2022-10-03T12:15:58.952Z,17.40
2022-10-03T12:17:17.373Z,17.40
2022-10-03T12:18:43.020Z,17.40
2022-10-03T12:20:06.138Z,17.40
2022-10-03T12:21:28.041Z,17.40
2022-10-03T12:22:32.648Z,17.40
2022-10-03T12:23:51.999Z,17.50
2022-10-03T12:25:16.437Z,17.50
2022-10-03T12:26:28.895Z,17.50
2022-10-03T12:28:21.752Z,17.50
2022-10-03T12:29:26.425Z,17.60
2022-10-03T12:30:40.867Z,17.60
2022-10-03T12:31:46.590Z,17.60
2022-10-03T12:33:07.049Z,17.60
2022-10-03T12:34:29.715Z,17.60
2022-10-03T12:36:17.694Z,17.70
2022-10-03T12:37:33.369Z,17.80
2022-10-03T12:38:35.116Z,17.90
2022-10-03T12:40:00.811Z,18.00
2022-10-03T12:41:11.730Z,18.00
2022-10-03T12:42:31.045Z,18.00
2022-10-03T12:43:53.578Z,18.10
2022-10-03T12:45:04.314Z,18.10
2022-10-03T12:46:18.957Z,18.10
2022-10-03T12:47:44.015Z,18.20
2022-10-03T12:49:06.345Z,18.20
2022-10-03T12:50:14.262Z,18.20
2022-10-03T12:51:38.044Z,18.20
2022-10-03T12:53:23.805Z,18.20
2022-10-03T12:54:36.101Z,18.30
2022-10-03T12:55:42.381Z,18.30
2022-10-03T12:57:02.358Z,18.30
2022-10-03T12:58:06.807Z,18.40
2022-10-03T12:59:33.466Z,18.40
2022-10-03T13:01:10.063Z,18.50
2022-10-03T13:02:26.196Z,18.50
2022-10-03T13:03:51.616Z,18.50
2022-10-03T13:05:30.744Z,18.50
2022-10-03T13:07:03.459Z,18.50
2022-10-03T13:08:43.520Z,18.50
2022-10-03T13:10:10.068Z,18.50
2022-10-03T13:11:46.746Z,18.50
2022-10-03T13:12:56.740Z,18.50
2022-10-03T13:14:17.162Z,18.50
2022-10-03T13:15:18.810Z,18.50
2022-10-03T13:16:31.823Z,18.60
2022-10-03T13:18:07.240Z,18.60
2022-10-03T13:19:17.749Z,18.60
2022-10-03T13:20:32.534Z,18.70
2022-10-03T13:21:56.096Z,18.70
2022-10-03T13:23:04.061Z,18.70
2022-10-03T13:24:34.657Z,18.70
2022-10-03T13:25:42.403Z,18.70
2022-10-03T13:26:53.874Z,18.80
2022-10-03T13:28:10.842Z,18.80
2022-10-03T13:29:18.127Z,18.90
2022-10-03T13:30:28.941Z,18.90
2022-10-03T13:31:33.863Z,18.90
2022-10-03T13:32:39.333Z,18.90
2022-10-03T13:33:51.525Z,19.00
2022-10-03T13:35:33.216Z,19.00
2022-10-03T13:36:38.391Z,19.00
2022-10-03T13:38:16.574Z,19.00
2022-10-03T13:39:42.453Z,18.90
2022-10-03T13:41:03.513Z,18.90
2022-10-03T13:42:39.429Z,18.90
2022-10-03T13:43:50.221Z,19.00
2022-10-03T13:44:57.793Z,19.00
2022-10-03T13:46:01.172Z,19.30
2022-10-03T13:47:40.219Z,19.10
2022-10-03T13:48:52.435Z,19.20
2022-10-03T13:50:06.105Z,19.30
2022-10-03T13:51:36.501Z,19.40
2022-10-03T13:53:09.382Z,19.50
2022-10-03T13:54:26.011Z,19.60
2022-10-03T13:55:44.944Z,19.70
2022-10-03T13:56:57.857Z,19.80
2022-10-03T13:58:33.663Z,19.80
2022-10-03T13:59:55.331Z,19.80
2022-10-03T14:01:36.966Z,19.80
2022-10-03T14:02:44.829Z,19.80
2022-10-03T14:04:14.894Z,19.70
2022-10-03T14:05:31.535Z,19.70
2022-10-03T14:06:53.805Z,19.60
2022-10-03T14:08:13.606Z,19.70
2022-10-03T14:09:49.180Z,19.60
2022-10-03T14:10:56.892Z,19.70
2022-10-03T14:12:01.733Z,19.80
2022-10-03T14:13:19.737Z,19.90
2022-10-03T14:14:34.181Z,19.90
2022-10-03T14:15:53.955Z,20.00
2022-10-03T14:17:00.660Z,20.20
2022-10-03T14:18:33.974Z,20.30
2022-10-03T14:20:10.741Z,20.50
2022-10-03T14:21:40.729Z,20.80
2022-10-03T14:23:07.497Z,21.00
2022-10-03T14:24:36.940Z,21.10
2022-10-03T14:26:18.217Z,21.30
2022-10-03T14:28:02.015Z,21.40
2022-10-03T14:29:24.732Z,21.70
2022-10-03T14:31:05.480Z,21.90
2022-10-03T14:32:48.332Z,22.20
2022-10-03T14:34:02.890Z,22.90
2022-10-03T14:35:38.739Z,23.60
2022-10-03T14:37:09.470Z,24.20
2022-10-03T14:38:54.970Z,24.70
2022-10-03T14:40:02.517Z,25.30
2022-10-03T14:41:09.186Z,25.60
2022-10-03T14:42:22.880Z,25.90
2022-10-03T14:43:24.511Z,26.20
2022-10-03T14:44:40.139Z,26.50
2022-10-03T14:45:49.542Z,26.70
2022-10-03T14:47:01.640Z,26.70
2022-10-03T14:48:12.600Z,26.50
2022-10-03T14:49:52.361Z,26.30
2022-10-03T14:50:54.698Z,26.10
2022-10-03T14:52:03.070Z,25.90
2022-10-03T14:53:20.281Z,25.80
2022-10-03T14:54:27.408Z,25.50
2022-10-03T14:56:03.741Z,25.30
2022-10-03T14:57:52.951Z,25.10
2022-10-03T14:59:02.685Z,24.80
2022-10-03T15:00:08.432Z,24.60
2022-10-03T15:01:18.981Z,24.40
2022-10-03T15:02:38.217Z,24.30
2022-10-03T15:04:18.624Z,24.20
2022-10-03T15:05:59.179Z,24.00
2022-10-03T15:07:02.793Z,23.90
2022-10-03T15:08:16.115Z,23.80
2022-10-03T15:09:34.074Z,23.70
2022-10-03T15:10:36.853Z,23.60
2022-10-03T15:11:59.493Z,23.50
2022-10-03T15:13:09.779Z,23.40
2022-10-03T15:14:12.060Z,23.30
2022-10-03T15:15:23.462Z,23.30
2022-10-03T15:16:26.802Z,23.20
2022-10-03T15:17:32.179Z,23.10
2022-10-03T15:18:34.459Z,22.90
2022-10-03T15:20:04.124Z,22.70
2022-10-03T15:21:10.880Z,22.60
2022-10-03T15:22:21.286Z,22.50
2022-10-03T15:23:26.369Z,22.50
2022-10-03T15:24:35.025Z,22.40
2022-10-03T15:25:41.830Z,22.40
2022-10-03T15:26:47.410Z,22.30
2022-10-03T15:27:52.424Z,22.20
2022-10-03T15:28:59.424Z,22.30
2022-10-03T15:30:05.312Z,22.20
2022-10-03T15:31:15.395Z,22.10
2022-10-03T15:32:27.640Z,22.10
2022-10-03T15:33:32.881Z,22.00
2022-10-03T15:34:40.869Z,21.90
2022-10-03T15:35:46.961Z,21.90
2022-10-03T15:36:58.178Z,21.70
2022-10-03T15:38:13.648Z,21.70
2022-10-03T15:39:48.712Z,21.60
2022-10-03T15:41:21.457Z,21.40
2022-10-03T15:42:28.935Z,21.30
2022-10-03T15:43:35.828Z,21.20
2022-10-03T15:44:50.190Z,21.20
2022-10-03T15:45:53.414Z,21.20
2022-10-03T15:47:01.863Z,21.00
2022-10-03T15:48:11.554Z,21.00
2022-10-03T15:49:19.902Z,20.90
2022-10-03T15:50:33.492Z,20.90
2022-10-03T15:51:38.643Z,20.80
2022-10-03T15:52:52.891Z,20.80
2022-10-03T15:53:58.447Z,20.70
2022-10-03T15:55:11.826Z,20.60
2022-10-03T15:56:23.999Z,20.50
2022-10-03T15:57:30.361Z,20.40
2022-10-03T15:58:37.993Z,20.40
2022-10-03T15:59:45.356Z,20.40
2022-10-03T16:01:05.547Z,20.30
2022-10-03T16:02:18.963Z,20.20
2022-10-03T16:03:44.289Z,20.20
2022-10-03T16:04:46.947Z,20.10
2022-10-03T16:05:55.902Z,20.00
2022-10-03T16:07:03.538Z,20.00
2022-10-03T16:08:11.609Z,20.00
2022-10-03T16:09:48.568Z,19.90
2022-10-03T16:11:13.881Z,19.90
2022-10-03T16:12:55.182Z,19.80
2022-10-03T16:14:20.906Z,19.80
2022-10-03T16:15:53.397Z,19.70
2022-10-03T16:16:59.956Z,19.60
2022-10-03T16:18:06.623Z,19.60
2022-10-03T16:19:33.621Z,19.50
2022-10-03T16:20:41.454Z,19.40
2022-10-03T16:21:46.650Z,19.40
2022-10-03T16:22:57.193Z,19.40
2022-10-03T16:24:02.192Z,19.30
2022-10-03T16:25:25.554Z,19.30
2022-10-03T16:26:31.698Z,19.30
2022-10-03T16:27:38.653Z,19.20
2022-10-03T16:28:42.186Z,19.20
2022-10-03T16:30:04.543Z,19.20
2022-10-03T16:31:11.499Z,19.20
2022-10-03T16:32:29.660Z,19.20
2022-10-03T16:33:35.489Z,19.10
2022-10-03T16:34:43.397Z,19.10
2022-10-03T16:35:50.017Z,19.00
2022-10-03T16:36:52.201Z,19.00
2022-10-03T16:37:55.023Z,19.00
2022-10-03T16:38:59.981Z,19.00
2022-10-03T16:40:07.370Z,19.00
2022-10-03T16:41:25.621Z,18.90
2022-10-03T16:42:39.648Z,18.90
2022-10-03T16:43:42.101Z,18.90
2022-10-03T16:44:46.526Z,18.80
2022-10-03T16:45:49.066Z,18.80
2022-10-03T16:46:54.269Z,18.80
2022-10-03T16:48:18.670Z,18.70
2022-10-03T16:49:53.636Z,18.60
2022-10-03T16:50:56.447Z,18.60
2022-10-03T16:52:09.873Z,18.50
2022-10-03T16:53:12.617Z,18.50
2022-10-03T16:54:18.116Z,18.50
2022-10-03T16:55:37.249Z,18.40
2022-10-03T16:56:47.325Z,18.40
2022-10-03T16:58:28.246Z,18.30
2022-10-03T16:59:32.655Z,18.30
2022-10-03T17:01:25.426Z,18.30
2022-10-03T17:02:27.495Z,18.20
2022-10-03T17:03:36.937Z,18.20
2022-10-03T17:04:48.723Z,18.10
2022-10-03T17:05:57.724Z,18.20
2022-10-03T17:07:05.935Z,18.00
2022-10-03T17:08:36.795Z,18.00
2022-10-03T17:09:46.452Z,18.00
2022-10-03T17:10:57.960Z,18.00
2022-10-03T17:12:01.663Z,17.90
2022-10-03T17:13:14.254Z,17.90
2022-10-03T17:14:19.159Z,17.90
2022-10-03T17:15:24.088Z,17.80
2022-10-03T17:16:52.187Z,17.80
2022-10-03T17:18:00.017Z,17.80
2022-10-03T17:19:08.809Z,17.70
2022-10-03T17:20:19.576Z,17.70
2022-10-03T17:21:27.773Z,17.70
2022-10-03T17:22:38.403Z,17.70
2022-10-03T17:23:47.289Z,17.60
2022-10-03T17:25:07.144Z,17.60
2022-10-03T17:26:32.892Z,17.50
2022-10-03T17:27:40.582Z,17.50
2022-10-03T17:29:09.122Z,17.40
2022-10-03T17:30:22.775Z,17.40
2022-10-03T17:31:48.069Z,17.50
2022-10-03T17:32:57.070Z,17.30
2022-10-03T17:34:22.580Z,17.30